No particular awareness of the weather is required.    There are no Weather-warnings


Meteo18 Weather Cam more information Meteo18 Weather Cam


Thunder radar more information blitzortung!


Rain radar more information rain snow radar


Visit our other weather sites:

Template documentation
and downloads

And another site



Weather Underground History page Text

Daily Summary for May 29, 2017 Units:  English    Metric   Both
« Previous Day
Next Day »
Daily Weekly Monthly Yearly Custom
  High: Low: Average:
Temperature: 83.1 °F 60.3 °F 72.5 °F
Dew Point: 63.9 °F 53.1 °F 59.4 °F
Humidity: 95 % 40 % 66 %
Wind Speed: 11 mph 0 mph 2.2 mph
Wind Gust: 17 mph - -
Wind:- - WSW
Pressure: 30 in 30 in -
Precipitation: 0 in    
Historical Graphs
 
 
Tabular Data for May 29, 2017
Time Temperature Dew Point Pressure Wind Wind Speed Wind Gust Humidity Rainfall Rate (Hourly)
00:07 70.3 °F 63.5 °F 30 in Calm   2 mph 79 % 0 in
00:12 70 °F 63.1 °F 30 in Calm   2 mph 79 % 0 in
00:17 70.3 °F 63.5 °F 30 in Calm     79 % 0 in
00:22 70.5 °F 63 °F 30 in Calm     77 % 0 in
00:32 69.1 °F 63 °F 30 in WNW 3 mph   81 % 0 in
00:37 68.5 °F 62.8 °F 30 in WNW 1 mph 3 mph 82 % 0 in
00:42 69.3 °F 62.8 °F 30 in Calm   3 mph 80 % 0 in
00:52 69.3 °F 62.4 °F 30 in Calm   3 mph 79 % 0 in
00:57 69.3 °F 62.8 °F 30 in Calm   2 mph 80 % 0 in
01:02 69.4 °F 62.6 °F 30 in Calm   2 mph 79 % 0 in
01:12 68.5 °F 62.1 °F 30 in Calm   1 mph 80 % 0 in
01:17 67.8 °F 62.1 °F 30 in Calm   1 mph 82 % 0 in
01:22 67.6 °F 61.9 °F 30 in Calm     82 % 0 in
01:32 68.2 °F 61.7 °F 30 in Calm     80 % 0 in
01:42 67.5 °F 61.7 °F 30 in Calm     82 % 0 in
01:47 67.3 °F 61.9 °F 30 in Calm     83 % 0 in
01:52 66.9 °F 61.5 °F 30 in Calm     83 % 0 in
01:57 66.4 °F 61 °F 30 in Calm     83 % 0 in
02:02 65.8 °F 60.8 °F 30 in Calm     84 % 0 in
02:12 65.8 °F 61.2 °F 30 in Calm     85 % 0 in
02:17 66 °F 61 °F 30 in Calm     84 % 0 in
02:22 66 °F 61 °F 30 in Calm     84 % 0 in
02:27 65.8 °F 60.8 °F 30 in Calm     84 % 0 in
02:32 65.7 °F 61 °F 30 in Calm     85 % 0 in
02:37 65.5 °F 60.8 °F 30 in Calm     85 % 0 in
02:42 65.1 °F 60.4 °F 30 in Calm     85 % 0 in
02:47 64.8 °F 60.4 °F 30 in Calm     86 % 0 in
02:52 64.2 °F 59.9 °F 30 in Calm     86 % 0 in
02:57 64 °F 60.1 °F 30 in Calm     87 % 0 in
03:02 64 °F 60.4 °F 30 in Calm     88 % 0 in
03:12 63.3 °F 60.1 °F 30 in Calm     89 % 0 in
03:17 63.5 °F 60.3 °F 30 in Calm     89 % 0 in
03:22 63.3 °F 60.1 °F 30 in Calm     89 % 0 in
03:27 63.3 °F 60.1 °F 30 in Calm     89 % 0 in
03:32 63 °F 59.7 °F 30 in Calm     89 % 0 in
03:37 62.8 °F 59.7 °F 30 in Calm     90 % 0 in
03:42 62.6 °F 59.5 °F 30 in Calm     90 % 0 in
03:47 62.2 °F 59.2 °F 30 in Calm     90 % 0 in
03:52 62.1 °F 59.4 °F 30 in Calm     91 % 0 in
03:57 61.9 °F 59.2 °F 30 in Calm     91 % 0 in
04:02 61.9 °F 59.5 °F 30 in Calm     92 % 0 in
04:12 62.1 °F 59.7 °F 30 in Calm     92 % 0 in
04:17 62.1 °F 59.7 °F 30 in Calm     92 % 0 in
04:22 62.1 °F 59.7 °F 30 in Calm     92 % 0 in
04:32 61.9 °F 59.5 °F 30 in Calm     92 % 0 in
04:42 61.9 °F 59.9 °F 30 in Calm     93 % 0 in
04:47 61.5 °F 59.2 °F 30 in Calm     92 % 0 in
04:52 61.2 °F 58.8 °F 30 in Calm   2 mph 92 % 0 in
04:57 61 °F 59 °F 30 in Calm   2 mph 93 % 0 in
05:02 61 °F 59 °F 30 in Calm   2 mph 93 % 0 in
05:12 61.2 °F 59.2 °F 30 in Calm     93 % 0 in
05:17 61.3 °F 59.4 °F 30 in Calm     93 % 0 in
05:22 61.5 °F 59.7 °F 30 in Calm     94 % 0 in
05:32 61.3 °F 59.4 °F 30 in Calm     93 % 0 in
05:42 61 °F 59 °F 30 in Calm     93 % 0 in
05:47 60.8 °F 58.8 °F 30 in Calm     93 % 0 in
05:52 60.4 °F 58.5 °F 30 in Calm     93 % 0 in
06:02 60.4 °F 58.6 °F 30 in Calm   1 mph 94 % 0 in
06:12 60.3 °F 58.5 °F 30 in WNW 1 mph 1 mph 94 % 0 in
06:17 60.3 °F 58.5 °F 30 in WNW 1 mph 1 mph 94 % 0 in
06:22 60.4 °F 59 °F 30 in WNW 1 mph 2 mph 95 % 0 in
06:37 60.6 °F 59.2 °F 30 in Calm   2 mph 95 % 0 in
06:42 61.2 °F 59.7 °F 30 in Calm   2 mph 95 % 0 in
06:47 61.9 °F 60.4 °F 30 in Calm   2 mph 95 % 0 in
06:52 61.7 °F 59.7 °F 30 in Calm     93 % 0 in
07:02 62.4 °F 60.6 °F 30 in Calm     94 % 0 in
07:07 63 °F 61 °F 30 in Calm     93 % 0 in
07:12 63.7 °F 61.7 °F 30 in Calm     93 % 0 in
07:17 64 °F 61 °F 30 in Calm     90 % 0 in
07:22 64 °F 60.8 °F 30 in Calm     89 % 0 in
07:32 65.1 °F 60.1 °F 30 in Calm     84 % 0 in
07:37 66 °F 60.1 °F 30 in Calm     81 % 0 in
07:42 66.2 °F 60.8 °F 30 in Calm     83 % 0 in
07:47 66.4 °F 60.4 °F 30 in Calm     81 % 0 in
07:52 66.7 °F 59 °F 30 in Calm     76 % 0 in
08:02 67.3 °F 57.9 °F 30 in Calm   2 mph 72 % 0 in
08:12 67.8 °F 58.1 °F 30 in Calm   3 mph 71 % 0 in
08:17 68.7 °F 59 °F 30 in Calm   3 mph 71 % 0 in
08:22 69.4 °F 59.2 °F 30 in Calm   3 mph 70 % 0 in
08:27 70 °F 59.7 °F 30 in Calm   3 mph 70 % 0 in
08:32 70 °F 59.4 °F 30 in Calm   3 mph 69 % 0 in
08:37 70.2 °F 59.2 °F 30 in Calm   3 mph 68 % 0 in
08:42 70.2 °F 59.2 °F 30 in Calm   4 mph 68 % 0 in
08:52 70.3 °F 58.5 °F 30 in SW 1 mph 4 mph 66 % 0 in
08:57 70.3 °F 58.1 °F 30 in SSW 2 mph 4 mph 65 % 0 in
09:02 70.2 °F 57.9 °F 30 in SSE 2 mph 5 mph 65 % 0 in
09:12 70.7 °F 58.3 °F 30 in SSE 2 mph 6 mph 65 % 0 in
09:22 71.2 °F 58.8 °F 30 in ESE 2 mph 4 mph 65 % 0 in
09:32 71.8 °F 58.5 °F 30 in Calm   6 mph 63 % 0 in
09:42 72.7 °F 59.7 °F 30 in South 1 mph 5 mph 64 % 0 in
09:52 73.4 °F 60.1 °F 30 in ESE 3 mph 5 mph 63 % 0 in
10:02 74.1 °F 61.2 °F 30 in Calm   4 mph 64 % 0 in
10:12 74.8 °F 59.5 °F 30 in SSW 2 mph 4 mph 59 % 0 in
10:17 74.7 °F 58.8 °F 30 in Calm   4 mph 58 % 0 in
10:22 75.6 °F 59.7 °F 30 in SSE 2 mph 5 mph 58 % 0 in
10:32 75.7 °F 60.4 °F 30 in SSW 1 mph 6 mph 59 % 0 in
10:42 76.5 °F 60.6 °F 30 in SSW 2 mph 7 mph 58 % 0 in
10:47 77.2 °F 61.3 °F 30 in SE 2 mph 7 mph 58 % 0 in
10:52 77.5 °F 59.5 °F 30 in SSW 6 mph 7 mph 54 % 0 in
10:57 77.9 °F 60.4 °F 30 in SE 2 mph 7 mph 55 % 0 in
11:02 78.3 °F 59.2 °F 30 in SW 4 mph 7 mph 52 % 0 in
11:12 77.7 °F 57 °F 30 in SSW 4 mph 9 mph 49 % 0 in
11:22 77.9 °F 56.7 °F 30 in SSW 2 mph 10 mph 48 % 0 in
11:27 78.1 °F 56.8 °F 30 in SW 4 mph 10 mph 48 % 0 in
11:32 78.6 °F 56.1 °F 30 in SW 7 mph 9 mph 46 % 0 in
11:42 79 °F 55.2 °F 30 in SW 9 mph 10 mph 44 % 0 in
11:52 78.8 °F 53.1 °F 30 in WSW 6 mph 12 mph 41 % 0 in
11:57 78.6 °F 53.6 °F 30 in West 6 mph 12 mph 42 % 0 in
12:02 79 °F 55.8 °F 30 in West 7 mph 11 mph 45 % 0 in
12:07 79 °F 55.2 °F 30 in SSW 3 mph 11 mph 44 % 0 in
12:12 79.3 °F 56.8 °F 30 in West 5 mph 10 mph 46 % 0 in
12:17 79.2 °F 55.4 °F 30 in SW 7 mph 10 mph 44 % 0 in
12:27 79.2 °F 55.4 °F 30 in West 8 mph 12 mph 44 % 0 in
12:32 79.2 °F 54.7 °F 30 in West 8 mph 12 mph 43 % 0 in
12:37 79 °F 54 °F 30 in SW 4 mph 13 mph 42 % 0 in
12:42 79.3 °F 55.6 °F 30 in WNW 6 mph 13 mph 44 % 0 in
12:47 79.7 °F 56.5 °F 30 in West 2 mph 13 mph 45 % 0 in
12:52 79.7 °F 55.9 °F 30 in WNW 3 mph 12 mph 44 % 0 in
13:02 79.5 °F 54.5 °F 30 in SW 7 mph 12 mph 42 % 0 in
13:07 79.9 °F 54.7 °F 30 in SW 4 mph 12 mph 42 % 0 in
13:17 79.5 °F 54.5 °F 30 in WSW 7 mph 14 mph 42 % 0 in
13:22 79.3 °F 56.1 °F 30 in West 4 mph 14 mph 45 % 0 in
13:27 79.2 °F 54.7 °F 30 in West 3 mph 14 mph 43 % 0 in
13:32 79.2 °F 55.4 °F 30 in WSW 4 mph 10 mph 44 % 0 in
13:37 79 °F 55.2 °F 30 in WNW 6 mph 10 mph 44 % 0 in
13:42 79.2 °F 55.9 °F 30 in WNW 4 mph 10 mph 45 % 0 in
13:52 79.3 °F 56.8 °F 30 in WNW 2 mph 11 mph 46 % 0 in
13:57 79.9 °F 57.2 °F 30 in West 4 mph 11 mph 46 % 0 in
14:02 80.1 °F 58.1 °F 30 in WNW 6 mph 11 mph 47 % 0 in
14:12 80.8 °F 56.1 °F 30 in West 5 mph 11 mph 43 % 0 in
14:17 81.1 °F 56.5 °F 30 in South 4 mph 11 mph 43 % 0 in
14:22 81.1 °F 55.9 °F 30 in SE 1 mph 11 mph 42 % 0 in
14:32 81.7 °F 57 °F 30 in WNW 1 mph 7 mph 43 % 0 in
14:37 81.9 °F 57.7 °F 30 in Calm   7 mph 44 % 0 in
14:42 82.6 °F 57.7 °F 30 in ESE 2 mph 7 mph 43 % 0 in
14:47 82.8 °F 58.6 °F 30 in WNW 2 mph 7 mph 44 % 0 in
14:52 82.8 °F 57.9 °F 30 in SW 1 mph 7 mph 43 % 0 in
14:57 83.1 °F 57.6 °F 30 in SSW 2 mph 7 mph 42 % 0 in
15:02 82.6 °F 55.8 °F 30 in SW 7 mph 7 mph 40 % 0 in
15:12 82 °F 57.9 °F 30 in SW 4 mph 13 mph 44 % 0 in
15:17 82.2 °F 59.9 °F 30 in SW 4 mph 13 mph 47 % 0 in
15:22 82.6 °F 58.5 °F 30 in WSW 9 mph 13 mph 44 % 0 in
15:32 81.7 °F 58.8 °F 30 in West 2 mph 13 mph 46 % 0 in
15:37 81.9 °F 58.5 °F 30 in SSW 4 mph 13 mph 45 % 0 in
15:47 82 °F 59.2 °F 30 in SW 8 mph 12 mph 46 % 0 in
15:52 81.3 °F 58.6 °F 30 in SSW 4 mph 12 mph 46 % 0 in
15:57 81.7 °F 58.8 °F 30 in SSW 4 mph 12 mph 46 % 0 in
16:02 81.9 °F 60.3 °F 30 in West 5 mph 12 mph 48 % 0 in
16:07 82.4 °F 59.5 °F 30 in South 7 mph 9 mph 46 % 0 in
16:12 82 °F 58.6 °F 30 in SW 3 mph 9 mph 45 % 0 in
16:17 82 °F 59.2 °F 30 in WSW 6 mph 13 mph 46 % 0 in
16:22 82.9 °F 59.4 °F 30 in West 5 mph 13 mph 45 % 0 in
16:27 82.2 °F 59.9 °F 30 in SW 10 mph 11 mph 47 % 0 in
16:32 82.2 °F 59.9 °F 30 in WSW 6 mph 11 mph 47 % 0 in
16:37 82.2 °F 59.9 °F 30 in SW 3 mph 11 mph 47 % 0 in
16:42 81.9 °F 62.4 °F 30 in WSW 7 mph 11 mph 52 % 0 in
16:47 82.2 °F 63.9 °F 30 in WNW 3 mph 10 mph 54 % 0 in
16:52 82 °F 63.1 °F 30 in West 4 mph 12 mph 53 % 0 in
17:02 81.1 °F 62.4 °F 30 in West 3 mph 12 mph 53 % 0 in
17:12 81 °F 62.2 °F 30 in WNW 4 mph 11 mph 53 % 0 in
17:17 81.1 °F 61.3 °F 30 in West 4 mph 10 mph 51 % 0 in
17:22 81.5 °F 63.9 °F 30 in WSW 6 mph 10 mph 55 % 0 in
17:27 81.7 °F 60.6 °F 30 in WNW 4 mph 10 mph 49 % 0 in
17:32 81.7 °F 56.3 °F 30 in SW 6 mph 8 mph 42 % 0 in
17:42 82 °F 56.7 °F 30 in NW 1 mph 10 mph 42 % 0 in
17:47 82.2 °F 56.1 °F 30 in WNW 2 mph 10 mph 41 % 0 in
17:52 82.2 °F 59.9 °F 30 in Calm   8 mph 47 % 0 in
17:57 82 °F 61 °F 30 in WSW 2 mph 6 mph 49 % 0 in
18:02 82.2 °F 59.9 °F 30 in SW 2 mph 6 mph 47 % 0 in
18:07 81.9 °F 57.7 °F 30 in SSW 3 mph 6 mph 44 % 0 in
18:12 82 °F 57.9 °F 30 in West 3 mph 6 mph 44 % 0 in
18:17 82 °F 59.9 °F 30 in WNW 1 mph 6 mph 47 % 0 in
18:22 81.9 °F 58.5 °F 30 in SW 5 mph 6 mph 45 % 0 in
18:32 81.3 °F 60.3 °F 30 in WSW 7 mph 7 mph 49 % 0 in
18:37 81 °F 61.2 °F 30 in SW 2 mph 9 mph 51 % 0 in
18:42 81 °F 62.2 °F 30 in SW 4 mph 9 mph 53 % 0 in
18:52 80.6 °F 61.9 °F 30 in WSW 1 mph 8 mph 53 % 0 in
18:57 80.8 °F 62.6 °F 30 in WSW 7 mph 7 mph 54 % 0 in
19:02 80.4 °F 62.2 °F 30 in West 3 mph 7 mph 54 % 0 in
19:12 79.5 °F 62.4 °F 30 in West 4 mph 7 mph 56 % 0 in
19:17 79.2 °F 62.6 °F 30 in West 4 mph 8 mph 57 % 0 in
19:22 79 °F 63 °F 30 in WNW 8 mph 8 mph 58 % 0 in
19:32 77.2 °F 63.7 °F 30 in West 11 mph 11 mph 63 % 0 in
19:37 75.9 °F 62.8 °F 30 in WNW 4 mph 13 mph 64 % 0 in
19:42 75.2 °F 62.6 °F 30 in WNW 5 mph 17 mph 65 % 0 in
19:52 74.7 °F 63 °F 30 in WNW 1 mph 17 mph 67 % 0 in
19:57 74.5 °F 62.8 °F 30 in WNW 3 mph 9 mph 67 % 0 in
20:02 74.1 °F 62.4 °F 30 in WNW 2 mph 9 mph 67 % 0 in
20:12 73.8 °F 62.1 °F 30 in WNW 2 mph 9 mph 67 % 0 in
20:17 73.8 °F 62.1 °F 30 in WNW 3 mph 9 mph 67 % 0 in
20:22 73.6 °F 62.4 °F 30 in West 2 mph 7 mph 68 % 0 in
20:27 73.2 °F 62.1 °F 30 in West 1 mph 8 mph 68 % 0 in
20:32 73.2 °F 62.1 °F 30 in WNW 1 mph 8 mph 68 % 0 in
20:42 73 °F 61.9 °F 30 in WNW 7 mph 8 mph 68 % 0 in
20:47 72.9 °F 62.1 °F 30 in WNW 5 mph 7 mph 69 % 0 in
20:52 72.7 °F 62.2 °F 30 in WNW 2 mph 9 mph 70 % 0 in
20:57 72.1 °F 61.3 °F 30 in NW 6 mph 9 mph 69 % 0 in
21:02 72 °F 60.8 °F 30 in WNW 7 mph 11 mph 68 % 0 in
21:12 71.2 °F 60.1 °F 30 in WNW 1 mph 11 mph 68 % 0 in
21:17 71.1 °F 59.9 °F 30 in WNW 5 mph 11 mph 68 % 0 in
21:22 70.9 °F 60.3 °F 30 in West 2 mph 9 mph 69 % 0 in
21:32 70.3 °F 59.7 °F 30 in WNW 5 mph 7 mph 69 % 0 in
21:42 70 °F 59.4 °F 30 in WNW 4 mph 7 mph 69 % 0 in
21:47 69.8 °F 59.2 °F 30 in WNW 4 mph 7 mph 69 % 0 in
21:52 69.6 °F 59 °F 30 in WNW 6 mph 7 mph 69 % 0 in
21:57 69.4 °F 58.5 °F 30 in West 2 mph 6 mph 68 % 0 in
22:02 69.3 °F 58.3 °F 30 in WNW 3 mph 8 mph 68 % 0 in
22:07 69.3 °F 57.9 °F 30 in WNW 2 mph 9 mph 67 % 0 in
22:13 69.3 °F 57.9 °F 30 in WNW 4 mph 9 mph 67 % 0 in
22:22 69.1 °F 57.7 °F 30 in NNW 5 mph 9 mph 67 % 0 in
22:32 68.7 °F 57.4 °F 30 in Calm   8 mph 67 % 0 in
22:42 68.5 °F 57.6 °F 30 in North 1 mph 9 mph 68 % 0 in
22:47 68.5 °F 57.6 °F 30 in North 1 mph 9 mph 68 % 0 in
22:52 68.4 °F 57.7 °F 30 in NNW 1 mph 8 mph 69 % 0 in
22:57 68.4 °F 57.7 °F 30 in WNW 2 mph 5 mph 69 % 0 in
23:02 68.4 °F 57.7 °F 30 in WNW 1 mph 5 mph 69 % 0 in
23:12 68 °F 57.9 °F 30 in West 1 mph 4 mph 70 % 0 in
23:17 68 °F 58.3 °F 30 in Calm   4 mph 71 % 0 in
23:22 67.8 °F 58.1 °F 30 in Calm   1 mph 71 % 0 in
23:32 67.6 °F 58.3 °F 30 in WNW 1 mph 1 mph 72 % 0 in
23:42 67.3 °F 57.9 °F 30 in Calm   4 mph 72 % 0 in
23:52 66.9 °F 57.9 °F 30 in Calm   2 mph 73 % 0 in
23:57 66.7 °F 57.7 °F 30 in Calm   1 mph 73 % 0 in
Meteo18
Compliments of Weather Underground - 4 mb

Script developed by  Jim McMurry - jmcmurry@mwt.net Adapted for the template by  Wim van der Kuil - Leuven-Template.eu

You find our weather info also at:

European Weather Network

Weather Underground

Equipment we use:

Weather-station
Davis Vue

Weather-program
Meteohub

Weather-server
Raspberry PI 2 B+

Provider
1 and 1

Davis Vue

Meteohub

Raspberry PI 2 B+

1 and 1